Latest Weather Observations for Adelaide

IDS60901

Issued at 11:55 pm CDT Saturday 25 October 2014 (issued every 10 minutes, with the page automatically refreshed every 10 minutes)

About weather observations | Map of Adelaide area stations | Latest observations for Adelaide area | Other Formats
Station Details ID: 023090 Name: KENT TOWN Lat: -34.92 Lon: 138.62 Height: 48.0 m
Data from the previous 72 hours. | See also: Recent months at Adelaide
Date/Time
CDT
Tmp

°C
App
Tmp
°C
Dew
Point
°C
Rel
Hum
%
Delta-T

°C
Wind Press
QNH
hPa
Press
MSL
hPa
Rain
since
9 am
mm
Dir
 
Spd
km/h
Gust
km/h
Spd
kts
Gust
kts
25/11:30pm 16.2 15.1 10.1 67 3.2 ENE 6 7 3 4 1014.9 - 0.0
25/11:00pm 16.5 15.6 10.7 68 3.1 ENE 6 7 3 4 1015.6 - 0.0
25/10:30pm 17.0 17.3 10.8 67 3.3 CALM 0 0 0 0 1015.8 - 0.0
25/10:00pm 17.7 18.1 11.3 66 3.5 CALM 0 0 0 0 1016.5 - 0.0
25/09:30pm 17.7 18.4 12.3 70 3.0 CALM 0 0 0 0 1016.3 - 0.0
25/09:00pm 17.8 18.9 13.4 75 2.5 CALM 0 0 0 0 1016.2 1016.2 0.0
25/08:30pm 18.4 19.1 13.5 73 2.8 WNW 2 6 1 3 1016.2 - 0.0
25/08:00pm 18.9 18.7 12.9 68 3.4 NW 6 9 3 5 1015.8 - 0.0
25/07:30pm 19.8 19.6 11.7 59 4.5 W 4 7 2 4 1015.8 - 0.0
25/07:00pm 20.8 19.2 10.1 50 5.8 SW 9 13 5 7 1015.6 - 0.0
25/06:30pm 21.2 19.9 11.3 53 5.5 WSW 9 15 5 8 1015.3 - 0.0
25/06:00pm 22.3 20.5 10.7 47 6.4 WSW 11 20 6 11 1015.2 1015.2 0.0
25/05:30pm 22.9 21.0 10.6 45 6.8 SW 11 17 6 9 1015.3 - 0.0
25/05:00pm 23.0 20.5 11.2 47 6.6 WSW 15 20 8 11 1015.4 - 0.0
25/04:30pm 23.5 20.9 10.7 44 7.1 W 15 20 8 11 1015.4 - 0.0
25/04:00pm 23.3 21.2 11.1 46 6.8 SW 13 19 7 10 1015.3 - 0.0
25/03:30pm 22.6 20.3 11.7 50 6.1 SW 15 24 8 13 1015.8 - 0.0
25/03:00pm 23.6 20.9 12.8 50 6.2 WSW 19 24 10 13 1016.0 1016.0 0.0
25/02:30pm 23.4 20.9 12.4 50 6.3 W 17 24 9 13 1016.0 - 0.0
25/02:00pm 23.3 21.1 12.0 49 6.4 WSW 15 22 8 12 1015.9 - 0.0
25/01:30pm 24.2 22.1 12.5 48 6.7 WSW 15 22 8 12 1016.0 - 0.0
25/01:00pm 23.8 21.4 12.7 49 6.4 WSW 17 20 9 11 1016.2 - 0.0
25/12:30pm 24.9 22.6 11.9 44 7.4 W 15 24 8 13 1016.2 - 0.0
25/12:00pm 24.8 22.8 12.7 47 7.0 WNW 15 20 8 11 1016.2 1016.2 0.0
25/11:30am 24.9 23.2 12.4 45 7.2 WNW 13 19 7 10 1016.4 - 0.0
25/11:00am 23.5 22.7 11.6 47 6.7 NNW 7 15 4 8 1016.8 - 0.0
25/10:30am 22.7 22.2 11.9 50 6.1 WNW 6 13 3 7 1017.2 - 0.0
25/10:00am 21.9 20.8 12.1 53 5.5 N 9 15 5 8 1017.1 - 0.0
25/09:30am 21.3 20.7 11.6 54 5.4 WSW 6 11 3 6 1017.5 - 0.0
25/09:00am 20.2 19.3 10.6 54 5.2 N 6 11 3 6 1017.5 1017.5 0.0
25/08:30am 19.3 18.8 11.9 62 4.1 NNE 6 11 3 6 1017.5 - 0.0
25/08:00am 18.1 16.8 11.3 64 3.7 N 9 11 5 6 1017.2 - 0.0
25/07:30am 17.0 16.2 11.1 68 3.2 NNE 6 11 3 6 1016.8 - 0.0
25/07:00am 16.0 14.4 10.3 69 3.0 NE 9 13 5 7 1016.6 - 0.0
25/06:30am 15.6 14.8 11.1 74 2.4 NE 6 9 3 5 1016.3 - 0.0
25/06:00am 15.8 16.2 11.1 73 2.5 ENE 0 0 0 0 1015.6 1015.6 0.0
25/05:30am 15.7 15.1 11.6 76 2.2 SW 6 7 3 4 1015.1 - 0.0
25/05:00am 15.9 16.5 11.9 77 2.2 CALM 0 0 0 0 1014.4 - 0.0
25/04:30am 16.3 16.8 11.5 73 2.6 CALM 0 0 0 0 1014.1 - 0.0
25/04:00am 16.5 17.1 11.9 74 2.5 CALM 0 0 0 0 1014.6 - 0.0
25/03:30am 17.0 16.7 11.5 70 3.0 NNE 4 7 2 4 1014.6 - 0.0
25/03:00am 17.5 16.9 11.6 68 3.2 NNE 6 9 3 5 1014.7 1014.7 0.0
25/02:30am 17.5 18.3 12.7 73 2.7 CALM 0 0 0 0 1014.6 - 0.0
25/02:00am 18.0 17.3 12.0 68 3.3 N 7 9 4 5 1014.8 - 0.0
25/01:30am 18.5 19.1 12.0 66 3.6 ENE 0 6 0 3 1014.7 - 0.0
25/01:00am 19.3 18.5 11.7 61 4.2 ENE 7 11 4 6 1014.8 - 0.0
25/12:30am 20.2 19.5 11.5 57 4.8 N 6 11 3 6 1014.9 - 0.0
25/12:00am 20.3 19.9 12.3 60 4.5 NNE 6 7 3 4 1014.7 1014.7 0.0
 
Date/Time
CDT
Tmp

°C
App
Tmp
°C
Dew
Point
°C
Rel
Hum
%
Delta-T

°C
Wind Press
QNH
hPa
Press
MSL
hPa
Rain
since
9 am
mm
Dir
 
Spd
km/h
Gust
km/h
Spd
kts
Gust
kts
24/11:30pm 20.7 20.4 12.6 59 4.6 NNE 6 7 3 4 1014.5 - 0.0
24/11:00pm 20.6 20.4 12.9 61 4.4 W 6 7 3 4 1014.5 - 0.0
24/10:30pm 21.4 21.6 12.0 55 5.3 ENE 2 6 1 3 1014.2 - 0.0
24/10:00pm 21.7 22.3 13.0 57 5.0 SSW 2 7 1 4 1014.4 - 0.0
24/09:30pm 21.9 22.8 12.8 56 5.2 CALM 0 0 0 0 1014.3 - 0.0
24/09:00pm 22.0 22.5 12.7 55 5.3 SSW 2 6 1 3 1013.9 1013.8 0.0
24/08:30pm 22.8 23.3 12.9 53 5.7 SW 2 7 1 4 1013.3 - 0.0
24/08:00pm 24.3 22.8 10.7 42 7.6 SW 9 13 5 7 1013.1 - 0.0
24/07:30pm 26.7 25.2 9.0 32 9.7 SSW 7 11 4 6 1012.9 - 0.0
24/07:00pm 27.8 25.2 6.3 25 11.3 S 9 13 5 7 1012.7 - 0.0
24/06:30pm 28.0 24.1 5.2 23 11.8 SW 15 22 8 12 1012.8 - 0.0
24/06:00pm 28.9 24.5 6.5 24 11.9 WSW 19 26 10 14 1012.7 1012.6 0.0
24/05:30pm 29.6 25.5 6.0 22 12.5 SW 17 26 9 14 1012.3 - 0.0
24/05:00pm 30.3 25.1 2.2 16 14.0 SW 19 26 10 14 1012.0 - 0.0
24/04:30pm 32.2 28.0 1.5 14 15.3 WSW 13 22 7 12 1012.0 - 0.0
24/04:00pm 32.0 28.5 1.4 14 15.2 NW 9 17 5 9 1012.1 - 0.0
24/03:30pm 30.6 27.6 0.5 14 14.6 NNW 6 11 3 6 1012.5 - 0.0
24/03:00pm 31.7 28.3 1.9 15 14.9 SW 9 19 5 10 1013.0 1012.9 0.0
24/02:30pm 31.3 28.0 0.1 13 15.1 W 7 15 4 8 1013.3 - 0.0
24/02:00pm 30.5 26.8 2.2 16 14.1 SSW 11 17 6 9 1013.7 - 0.0
24/01:30pm 30.7 26.8 3.4 17 13.9 SW 13 20 7 11 1014.0 - 0.0
24/01:00pm 30.1 27.1 4.3 19 13.3 W 9 17 5 9 1014.1 - 0.0
24/12:30pm 29.2 26.5 5.5 22 12.4 SSW 9 17 5 9 1014.4 - 0.0
24/12:00pm 28.2 26.1 8.4 28 10.8 W 9 20 5 11 1014.7 1014.7 0.0
24/11:30am 27.8 25.3 8.1 29 10.7 NNW 11 19 6 10 1015.1 - 0.0
24/11:00am 26.9 25.4 9.3 33 9.7 N 7 15 4 8 1015.3 - 0.0
24/10:30am 25.3 24.2 9.9 37 8.5 NW 6 13 3 7 1015.4 - 0.0
24/10:00am 23.9 22.8 10.8 43 7.3 NNE 7 9 4 5 1015.3 - 0.0
24/09:30am 22.9 21.8 10.8 46 6.7 NE 7 11 4 6 1015.1 - 0.0
24/09:00am 22.1 21.1 11.1 49 6.1 ENE 7 13 4 7 1015.1 1015.1 0.0
24/08:30am 20.4 20.3 12.0 58 4.7 N 4 9 2 5 1015.1 - 0.0
24/08:00am 18.3 17.4 11.5 64 3.7 ENE 7 9 4 5 1014.4 - 0.0
24/07:30am 16.2 16.7 11.6 74 2.5 CALM 0 0 0 0 1014.5 - 0.0
24/07:00am 14.8 14.0 11.2 79 1.9 ENE 6 7 3 4 1014.3 - 0.0
24/06:30am 14.9 14.1 11.2 78 2.0 ENE 6 9 3 5 1013.9 - 0.0
24/06:00am 14.8 15.2 11.2 79 1.9 CALM 0 0 0 0 1013.4 1013.3 0.0
24/05:30am 15.1 14.3 11.0 76 2.2 NNE 6 9 3 5 1012.8 - 0.0
24/05:00am 15.0 14.1 11.5 79 1.9 NNE 7 11 4 6 1012.8 - 0.0
24/04:30am 14.6 14.7 11.6 82 1.6 NE 2 7 1 4 1012.5 - 0.0
24/04:00am 14.3 13.5 11.7 84 1.4 E 7 11 4 6 1013.0 - 0.0
24/03:30am 14.4 12.9 12.0 85 1.3 N 11 13 6 7 1013.3 - 0.0
24/03:00am 14.5 14.0 12.1 85 1.3 E 6 9 3 5 1013.0 1012.9 0.0
24/02:30am 14.9 15.2 12.3 84 1.4 NNE 2 9 1 5 1013.9 - 0.0
24/02:00am 15.3 14.7 12.4 83 1.6 NNE 7 9 4 5 1014.4 - 0.0
24/01:30am 15.3 15.0 12.8 85 1.4 NW 6 9 3 5 1014.9 - 0.0
24/01:00am 15.8 15.8 12.3 80 1.9 NE 4 7 2 4 1015.0 - 0.0
24/12:30am 15.8 14.9 12.5 81 1.8 ENE 9 11 5 6 1015.2 - 0.0
24/12:00am 16.4 17.6 13.7 84 1.5 CALM 0 4 0 2 1016.0 1016.0 0.0
 
Date/Time
CDT
Tmp

°C
App
Tmp
°C
Dew
Point
°C
Rel
Hum
%
Delta-T

°C
Wind Press
QNH
hPa
Press
MSL
hPa
Rain
since
9 am
mm
Dir
 
Spd
km/h
Gust
km/h
Spd
kts
Gust
kts
23/11:30pm 16.3 16.2 13.3 82 1.7 NW 6 7 3 4 1016.0 - 0.0
23/11:00pm 16.7 16.3 13.1 79 2.0 N 7 9 4 5 1015.7 - 0.0
23/10:30pm 16.9 17.6 13.3 79 2.0 NW 2 6 1 3 1015.8 - 0.0
23/10:00pm 17.1 18.0 13.0 77 2.3 CALM 0 0 0 0 1016.0 - 0.0
23/09:30pm 17.1 16.8 12.8 76 2.4 S 6 7 3 4 1015.8 - 0.0
23/09:00pm 17.5 18.0 12.8 74 2.6 SSW 2 7 1 4 1015.6 1015.6 0.0
23/08:30pm 17.8 18.7 13.0 73 2.7 CALM 0 0 0 0 1015.3 - 0.0
23/08:00pm 18.2 19.1 13.0 71 2.9 CALM 0 6 0 3 1015.2 - 0.0
23/07:30pm 19.1 18.2 12.7 66 3.6 WSW 9 13 5 7 1015.4 - 0.0
23/07:00pm 20.0 19.1 12.7 63 4.1 W 9 13 5 7 1015.0 - 0.0
23/06:30pm 20.5 19.7 12.9 61 4.3 WSW 9 13 5 7 1014.6 - 0.0
23/06:00pm 21.3 20.1 12.7 58 4.9 WSW 11 15 6 8 1014.5 1014.4 0.0
23/05:30pm 22.2 20.6 12.7 55 5.4 WSW 13 17 7 9 1014.5 - 0.0
23/05:00pm 22.7 21.2 13.0 54 5.6 WSW 13 20 7 11 1014.5 - 0.0
23/04:30pm 23.4 21.3 12.4 50 6.3 WSW 15 22 8 12 1014.4 - 0.0
23/04:00pm 23.4 21.6 12.1 49 6.4 WSW 13 19 7 10 1014.4 - 0.0
23/03:30pm 23.6 21.6 12.6 50 6.3 WSW 15 20 8 11 1014.4 - 0.0
23/03:00pm 23.1 21.1 12.6 51 6.0 WSW 15 20 8 11 1014.6 1014.6 0.0
23/02:30pm 22.7 20.7 12.7 53 5.7 WSW 15 20 8 11 1015.0 - 0.0
23/02:00pm 23.8 21.3 12.4 48 6.5 WSW 17 28 9 15 1015.5 - 0.0
23/01:30pm 23.9 22.2 12.6 49 6.5 WSW 13 20 7 11 1015.6 - 0.0
23/01:00pm 23.9 21.8 12.4 48 6.6 W 15 20 8 11 1015.9 - 0.0
23/12:30pm 23.9 22.6 12.6 49 6.5 NW 11 19 6 10 1016.2 - 0.0
23/12:00pm 23.5 22.0 12.0 48 6.5 W 11 19 6 10 1016.7 1016.7 0.0
23/11:30am 23.0 22.3 12.0 50 6.2 W 7 17 4 9 1017.1 - 0.0
23/11:00am 21.5 20.8 11.9 54 5.4 WSW 7 11 4 6 1017.2 - 0.0
23/10:30am 20.4 19.5 11.5 56 4.9 W 7 13 4 7 1017.6 - 0.0
23/10:00am 19.4 19.1 11.4 60 4.4 W 4 9 2 5 1017.9 - 0.0
23/09:30am 18.8 18.1 11.3 61 4.1 NW 6 9 3 5 1017.9 - 0.0
23/09:00am 17.9 17.2 11.3 65 3.6 NNW 6 11 3 6 1018.0 1018.0 0.0
23/08:30am 16.5 15.6 11.3 71 2.8 NW 7 13 4 7 1018.3 - 0.0
23/08:00am 15.7 14.9 11.6 76 2.2 N 7 13 4 7 1018.5 - 0.0
23/07:30am 14.8 13.9 11.2 79 1.9 N 7 9 4 5 1018.3 - 0.0
23/07:00am 13.6 13.9 10.9 84 1.4 CALM 0 0 0 0 1018.1 - 0.0
23/06:30am 13.6 13.5 10.9 84 1.4 ENE 2 6 1 3 1017.9 - 0.0
23/06:00am 13.7 13.7 11.0 84 1.4 NE 2 7 1 4 1017.8 1017.8 0.0
23/05:30am 14.1 13.3 11.1 82 1.6 NNW 6 7 3 4 1017.7 - 0.0
23/05:00am 14.0 14.0 11.2 83 1.5 SSW 2 6 1 3 1017.2 - 0.0
23/04:30am 14.4 12.6 11.0 80 1.8 SSW 11 15 6 8 1017.6 - 0.0
23/04:00am 14.3 12.6 11.1 81 1.7 S 11 17 6 9 1017.8 - 0.0
23/03:30am 14.3 13.0 11.1 81 1.7 SSW 9 13 5 7 1017.9 - 0.0
23/03:00am 14.6 13.2 10.8 78 2.0 S 9 15 5 8 1018.0 1018.0 0.0
23/02:30am 14.9 14.1 10.9 77 2.1 ESE 6 7 3 4 1018.4 - 0.0
23/02:00am 14.8 15.2 11.2 79 1.9 CALM 0 6 0 3 1018.7 - 0.0
23/01:30am 14.8 14.8 11.2 79 1.9 SW 2 6 1 3 1018.9 - 0.0
23/01:00am 15.2 14.5 11.3 77 2.1 W 6 7 3 4 1018.9 - 0.0
23/12:30am 15.6 14.9 11.5 76 2.2 NNW 6 7 3 4 1018.8 - 0.0
23/12:00am 15.7 14.8 11.2 74 2.4 W 7 11 4 6 1019.0 1019.0 0.0

Latest Capital City Observations: Canberra | Sydney | Melbourne | Brisbane | Adelaide | Perth | Hobart | Darwin

Other Formats:

Comma delimited format used in spreadsheet applications
http://www.bom.gov.au/fwo/IDS60901/IDS60901.94675.axf

JavaScript Object Notation format (JSON) in row-major order
http://www.bom.gov.au/fwo/IDS60901/IDS60901.94675.json